Time;durP1;ratioP1;P1;durP2;ratioP2;P2;SDS_P1;SDS_P2;PMS_P1;PMS_P2;Temp;Humidity;BMP_temperature;BMP_pressure;BME280_temperature;BME280_humidity;BME280_pressure;Samples;Min_cycle;Max_cycle;Signal;HPM_P1;HPM_P2
2023/07/30 00:01:31;;;;;;;7.35;2.70;;;17.00;99.90;;;;;;5131277;27;20886;-66
2023/07/30 00:03:57;;;;;;;3.17;2.25;;;16.90;99.90;;;;;;5131180;27;20035;-66
2023/07/30 00:06:24;;;;;;;6.43;3.35;;;17.00;99.90;;;;;;5131722;28;20084;-66
2023/07/30 00:08:51;;;;;;;4.38;2.03;;;17.10;99.90;;;;;;5112998;27;20047;-66
2023/07/30 00:11:18;;;;;;;3.08;2.15;;;17.00;99.90;;;;;;5135575;27;20043;-66
2023/07/30 00:13:45;;;;;;;5.25;2.47;;;17.00;99.90;;;;;;5116818;27;20365;-66
2023/07/30 00:16:11;;;;;;;7.85;2.35;;;17.00;99.90;;;;;;5108852;27;20047;-66
2023/07/30 00:18:38;;;;;;;3.92;2.60;;;16.90;99.90;;;;;;5134529;27;20126;-66
2023/07/30 00:21:05;;;;;;;3.88;2.85;;;17.00;99.90;;;;;;5106140;27;20129;-66
2023/07/30 00:23:32;;;;;;;6.35;3.13;;;17.00;99.90;;;;;;5133796;27;20051;-66
2023/07/30 00:25:59;;;;;;;6.38;2.55;;;16.90;99.90;;;;;;5125534;27;20126;-67
2023/07/30 00:28:25;;;;;;;5.40;2.78;;;17.00;99.90;;;;;;5132195;27;20069;-66
2023/07/30 00:30:52;;;;;;;6.10;2.60;;;17.00;99.90;;;;;;5106893;27;20050;-66
2023/07/30 00:33:19;;;;;;;5.65;2.30;;;17.00;99.90;;;;;;5111510;27;20047;-66
2023/07/30 00:35:46;;;;;;;4.85;2.30;;;17.00;99.90;;;;;;5115803;27;20043;-66
2023/07/30 00:38:14;;;;;;;4.80;1.73;;;16.90;99.90;;;;;;5130619;27;20045;-66
2023/07/30 00:40:41;;;;;;;6.13;2.25;;;17.00;99.90;;;;;;5116086;27;20039;-66
2023/07/30 00:43:08;;;;;;;3.20;2.28;;;16.80;99.90;;;;;;5109299;27;20556;-66
2023/07/30 00:45:36;;;;;;;4.43;2.42;;;16.80;99.90;;;;;;5115204;27;20047;-66
2023/07/30 00:48:03;;;;;;;5.10;2.50;;;16.80;99.90;;;;;;5126385;27;20050;-66
2023/07/30 00:50:30;;;;;;;5.43;2.35;;;16.80;99.90;;;;;;5134471;27;20050;-66
2023/07/30 00:52:57;;;;;;;;;;;16.80;99.90;;;;;;5115946;27;20050;-66
2023/07/30 00:55:24;;;;;;;4.28;2.60;;;16.80;99.90;;;;;;5126975;27;20014;-66
2023/07/30 00:57:51;;;;;;;;;;;16.70;99.90;;;;;;5135222;27;20039;-66
2023/07/30 01:00:18;;;;;;;10.65;2.70;;;16.70;99.90;;;;;;5133147;27;19923;-66
2023/07/30 01:02:45;;;;;;;10.45;2.38;;;16.80;99.90;;;;;;5103506;27;20415;-66
2023/07/30 01:05:12;;;;;;;3.28;2.53;;;16.70;99.90;;;;;;5129766;27;20039;-66
2023/07/30 01:07:38;;;;;;;6.28;2.20;;;16.70;99.90;;;;;;5112005;27;20054;-66
2023/07/30 01:10:06;;;;;;;6.70;2.22;;;16.70;99.90;;;;;;5118028;27;20043;-66
2023/07/30 01:12:34;;;;;;;6.35;2.53;;;16.70;99.90;;;;;;5129443;27;20039;-66
2023/07/30 01:15:02;;;;;;;6.72;2.60;;;16.70;99.90;;;;;;5114465;27;20050;-66
2023/07/30 01:17:29;;;;;;;4.13;2.70;;;16.70;99.90;;;;;;5127195;27;20050;-66
2023/07/30 01:19:56;;;;;;;6.28;2.58;;;16.80;99.90;;;;;;5112200;27;20142;-66
2023/07/30 01:22:23;;;;;;;5.30;3.00;;;16.80;99.90;;;;;;5117438;27;20047;-67
2023/07/30 01:24:50;;;;;;;6.50;2.80;;;16.80;99.90;;;;;;5115371;27;20574;-66
2023/07/30 01:27:25;;;;;;;6.03;2.83;;;16.90;99.90;;;;;;5109140;27;20126;-66
2023/07/30 01:29:56;;;;;;;7.43;2.25;;;16.80;99.90;;;;;;5125910;27;20121;-66
2023/07/30 01:32:27;;;;;;;5.07;2.35;;;17.00;99.90;;;;;;5107310;27;20066;-66
2023/07/30 01:34:57;;;;;;;2.60;2.10;;;16.70;99.90;;;;;;5126817;27;20084;-66
2023/07/30 01:37:26;;;;;;;3.35;2.00;;;16.70;99.90;;;;;;5134246;27;20077;-66
2023/07/30 01:39:53;;;;;;;5.88;2.60;;;16.70;99.90;;;;;;5132214;27;20039;-66
2023/07/30 01:42:20;;;;;;;4.72;2.22;;;16.60;99.90;;;;;;5115846;27;20050;-66
2023/07/30 01:44:47;;;;;;;2.88;2.08;;;16.60;99.90;;;;;;5114952;27;20031;-66
2023/07/30 01:47:13;;;;;;;5.45;2.35;;;16.60;99.90;;;;;;5132793;27;20043;-66
2023/07/30 01:49:40;;;;;;;15.05;2.78;;;16.60;99.90;;;;;;5114518;27;20039;-66
2023/07/30 01:52:07;;;;;;;6.60;3.17;;;16.70;99.90;;;;;;5114767;27;20050;-67
2023/07/30 01:54:34;;;;;;;4.40;2.70;;;16.60;99.90;;;;;;5133173;27;20426;-66
2023/07/30 01:57:01;;;;;;;5.07;2.72;;;16.70;99.90;;;;;;5126453;27;20058;-66
2023/07/30 01:59:28;;;;;;;;;;;16.70;99.90;;;;;;5112125;27;20045;-66
2023/07/30 02:01:54;;;;;;;6.13;2.50;;;16.70;99.90;;;;;;5113844;27;19923;-66
2023/07/30 02:04:21;;;;;;;3.88;2.55;;;16.70;99.90;;;;;;5114719;27;20130;-66
2023/07/30 02:06:48;;;;;;;3.10;2.70;;;16.80;99.90;;;;;;5113763;27;20039;-66
2023/07/30 02:09:15;;;;;;;3.00;2.40;;;16.80;99.90;;;;;;5133430;27;20043;-66
2023/07/30 02:11:42;;;;;;;6.32;2.53;;;16.80;99.90;;;;;;5107794;27;20784;-66
2023/07/30 02:14:10;;;;;;;4.32;2.78;;;16.80;99.90;;;;;;5114501;27;20039;-66
2023/07/30 02:16:36;;;;;;;5.47;2.70;;;16.80;99.90;;;;;;5114442;27;20410;-66
2023/07/30 02:19:03;;;;;;;4.57;3.10;;;16.90;99.90;;;;;;5116029;27;20059;-66
2023/07/30 02:21:32;;;;;;;5.80;2.67;;;16.90;99.90;;;;;;5102174;27;20051;-66
2023/07/30 02:23:59;;;;;;;7.40;2.28;;;16.90;99.90;;;;;;5117668;27;20043;-66
2023/07/30 02:26:26;;;;;;;4.15;2.38;;;16.90;99.90;;;;;;5129786;27;20117;-66
2023/07/30 02:28:53;;;;;;;5.28;2.13;;;16.80;99.90;;;;;;5129487;27;20049;-66
2023/07/30 02:31:19;;;;;;;4.03;2.40;;;16.90;99.90;;;;;;5132443;27;20395;-66
2023/07/30 02:33:46;;;;;;;3.05;2.08;;;16.80;99.90;;;;;;5129811;27;20365;-66
2023/07/30 02:36:13;;;;;;;5.53;3.05;;;16.80;99.90;;;;;;5108984;27;20050;-66
2023/07/30 02:38:40;;;;;;;8.00;2.70;;;16.80;99.90;;;;;;5113081;27;20043;-66
2023/07/30 02:41:06;;;;;;;4.93;3.40;;;16.80;99.90;;;;;;5132486;27;20126;-66
2023/07/30 02:43:33;;;;;;;9.20;3.72;;;16.90;99.90;;;;;;5109173;27;20043;-67
2023/07/30 02:46:00;;;;;;;6.05;3.78;;;16.90;99.90;;;;;;5124676;27;20483;-66
2023/07/30 02:48:27;;;;;;;4.68;3.85;;;16.90;99.90;;;;;;5131835;27;20070;-66
2023/07/30 02:50:54;;;;;;;7.50;3.88;;;17.00;99.90;;;;;;5105007;27;20035;-66
2023/07/30 02:53:20;;;;;;;9.90;3.78;;;17.10;99.90;;;;;;5127432;27;20471;-66
2023/07/30 02:55:48;;;;;;;4.80;3.55;;;17.00;99.90;;;;;;5104918;27;20051;-66
2023/07/30 02:58:14;;;;;;;4.55;3.67;;;17.00;99.90;;;;;;5114170;27;20066;-66
2023/07/30 03:00:41;;;;;;;4.25;3.45;;;17.10;99.90;;;;;;5126786;27;20043;-66
2023/07/30 03:03:09;;;;;;;4.82;3.47;;;17.00;99.90;;;;;;5099503;28;20051;-66
2023/07/30 03:05:36;;;;;;;6.65;3.90;;;17.00;99.90;;;;;;5110097;27;20050;-66
2023/07/30 03:08:03;;;;;;;3.70;3.17;;;16.90;99.90;;;;;;5114083;27;20043;-66
2023/07/30 03:10:30;;;;;;;7.18;3.47;;;16.90;99.90;;;;;;5124982;27;20506;-67
2023/07/30 03:12:56;;;;;;;4.55;3.50;;;16.90;99.90;;;;;;5093794;28;20055;-66
2023/07/30 03:15:23;;;;;;;5.50;3.95;;;17.00;99.90;;;;;;5126379;27;20051;-66
2023/07/30 03:17:50;;;;;;;3.95;3.08;;;17.00;99.90;;;;;;5132511;27;20039;-66
2023/07/30 03:20:17;;;;;;;5.68;3.45;;;17.00;99.90;;;;;;5104233;27;20043;-66
2023/07/30 03:22:44;;;;;;;5.25;3.58;;;16.90;99.90;;;;;;5090309;27;20120;-66
2023/07/30 03:25:11;;;;;;;5.32;3.17;;;16.90;99.90;;;;;;5103279;28;20067;-66
2023/07/30 03:27:38;;;;;;;5.07;3.17;;;16.80;99.90;;;;;;5102272;27;20100;-66
2023/07/30 03:30:05;;;;;;;2.80;2.50;;;16.90;99.90;;;;;;5111363;27;20043;-66
2023/07/30 03:32:32;;;;;;;;;;;16.90;99.90;;;;;;5114332;27;20144;-66
2023/07/30 03:34:59;;;;;;;5.32;3.30;;;16.90;99.90;;;;;;5126233;27;19926;-66
2023/07/30 03:37:25;;;;;;;3.30;2.78;;;16.90;99.90;;;;;;5126369;27;20036;-66
2023/07/30 03:39:53;;;;;;;;;;;16.80;99.90;;;;;;5130629;27;20035;-66
2023/07/30 03:42:20;;;;;;;4.13;2.45;;;16.80;99.90;;;;;;5112754;28;20006;-66
2023/07/30 03:44:47;;;;;;;;;;;16.90;99.90;;;;;;5121651;27;20035;-66
2023/07/30 03:47:13;;;;;;;5.65;2.58;;;16.90;99.90;;;;;;5138994;27;20375;-66
2023/07/30 03:49:40;;;;;;;4.40;2.83;;;16.90;99.90;;;;;;5129540;27;20039;-66
2023/07/30 03:52:07;;;;;;;7.40;2.70;;;16.90;99.90;;;;;;5117685;27;20039;-66
2023/07/30 03:54:34;;;;;;;7.70;3.85;;;16.90;99.90;;;;;;5115554;27;20039;-66
2023/07/30 03:57:00;;;;;;;5.60;2.83;;;16.90;99.90;;;;;;5108094;27;20050;-66
2023/07/30 03:59:28;;;;;;;7.15;2.83;;;16.80;99.90;;;;;;5114683;27;20046;-66
2023/07/30 04:01:55;;;;;;;3.08;2.55;;;16.90;99.90;;;;;;5116869;27;20047;-66
2023/07/30 04:04:22;;;;;;;4.03;3.00;;;16.80;99.90;;;;;;5116251;27;20107;-66
2023/07/30 04:06:49;;;;;;;3.60;3.08;;;16.80;99.90;;;;;;5103054;27;20039;-66
2023/07/30 04:09:15;;;;;;;4.60;3.13;;;16.90;99.90;;;;;;5119460;27;20039;-66
2023/07/30 04:11:42;;;;;;;6.35;2.70;;;16.90;99.90;;;;;;5103398;27;20054;-66
2023/07/30 04:14:09;;;;;;;4.40;2.78;;;16.90;99.90;;;;;;5098964;28;20042;-66
2023/07/30 04:16:36;;;;;;;7.55;3.30;;;16.90;99.90;;;;;;5119472;27;20497;-66
2023/07/30 04:19:03;;;;;;;7.45;3.20;;;16.80;99.90;;;;;;5149116;27;20036;-66
2023/07/30 04:21:29;;;;;;;4.68;3.42;;;16.90;99.90;;;;;;5130256;27;20066;-66
2023/07/30 04:23:56;;;;;;;7.05;3.53;;;16.90;99.90;;;;;;5113319;27;20057;-66
2023/07/30 04:26:23;;;;;;;5.22;3.83;;;16.90;99.90;;;;;;5122831;27;20038;-66
2023/07/30 04:28:50;;;;;;;4.70;3.70;;;16.90;99.90;;;;;;5115356;27;20049;-66
2023/07/30 04:31:17;;;;;;;5.72;3.40;;;16.90;99.90;;;;;;5118922;27;20517;-66
2023/07/30 04:33:44;;;;;;;3.92;3.08;;;16.90;99.90;;;;;;5116596;27;20039;-66
2023/07/30 04:36:10;;;;;;;3.80;2.55;;;16.90;99.90;;;;;;5106734;28;20036;-66
2023/07/30 04:38:37;;;;;;;6.28;2.97;;;16.90;99.90;;;;;;5115264;27;20079;-66
2023/07/30 04:41:04;;;;;;;4.53;3.33;;;17.00;99.90;;;;;;5116028;27;20061;-66
2023/07/30 04:43:38;;;;;;;7.00;3.20;;;16.90;99.90;;;;;;5116672;27;20559;-66
2023/07/30 04:46:04;;;;;;;4.35;3.33;;;16.90;99.90;;;;;;5137630;27;20437;-66
2023/07/30 04:48:31;;;;;;;5.30;3.28;;;17.00;99.90;;;;;;5123231;27;20038;-66
2023/07/30 04:50:58;;;;;;;6.88;3.33;;;17.00;99.90;;;;;;5108796;27;20511;-66
2023/07/30 04:53:25;;;;;;;4.72;2.90;;;17.00;99.90;;;;;;5131744;27;20072;-66
2023/07/30 04:55:59;;;;;;;4.28;2.60;;;17.10;99.90;;;;;;5105933;27;20143;-66
2023/07/30 04:58:26;;;;;;;8.80;2.53;;;17.10;99.90;;;;;;5108648;27;20684;-66
2023/07/30 05:00:52;;;;;;;4.63;2.53;;;17.10;99.90;;;;;;5126498;27;20118;-66
2023/07/30 05:03:19;;;;;;;6.72;2.30;;;17.20;99.90;;;;;;5131391;27;20545;-66
2023/07/30 05:05:46;;;;;;;3.90;2.60;;;17.20;99.90;;;;;;5133915;27;20043;-66
2023/07/30 05:08:13;;;;;;;5.13;2.20;;;17.20;99.90;;;;;;5134733;27;20038;-66
2023/07/30 05:10:40;;;;;;;4.15;2.40;;;17.30;99.90;;;;;;5106837;27;20047;-66
2023/07/30 05:13:08;;;;;;;4.47;2.65;;;17.30;99.90;;;;;;5134756;27;20114;-66
2023/07/30 05:15:35;;;;;;;5.05;2.65;;;17.20;99.90;;;;;;5126794;27;20123;-67
2023/07/30 05:18:02;;;;;;;4.22;2.40;;;17.40;99.90;;;;;;5126342;27;20040;-66
2023/07/30 05:20:29;;;;;;;5.80;2.15;;;17.60;99.90;;;;;;5133620;27;20103;-67
2023/07/30 05:22:55;;;;;;;3.92;2.17;;;17.60;99.90;;;;;;5134335;27;20036;-66
2023/07/30 05:25:22;;;;;;;7.90;2.60;;;17.70;99.90;;;;;;5128330;27;20061;-67
2023/07/30 05:27:49;;;;;;;4.47;2.22;;;17.70;99.90;;;;;;5101350;27;20408;-66
2023/07/30 05:30:16;;;;;;;3.85;2.17;;;17.70;99.90;;;;;;5126393;27;20118;-66
2023/07/30 05:32:43;;;;;;;4.22;2.35;;;17.70;99.90;;;;;;5134670;27;20369;-66
2023/07/30 05:35:10;;;;;;;3.97;2.92;;;17.70;99.90;;;;;;5128360;27;20123;-66
2023/07/30 05:37:36;;;;;;;2.70;2.22;;;17.80;99.90;;;;;;5134209;27;20039;-67
2023/07/30 05:40:04;;;;;;;3.08;2.33;;;17.80;99.90;;;;;;5132765;27;20127;-66
2023/07/30 05:42:31;;;;;;;6.05;2.38;;;17.80;99.90;;;;;;5128969;27;20114;-66
2023/07/30 05:44:57;;;;;;;5.38;2.25;;;17.80;99.90;;;;;;5131675;27;20039;-67
2023/07/30 05:47:24;;;;;;;4.72;2.25;;;17.90;99.90;;;;;;5133898;27;20652;-67
2023/07/30 05:49:51;;;;;;;11.43;2.90;;;17.90;99.90;;;;;;5111640;27;20439;-67
2023/07/30 05:52:18;;;;;;;4.47;2.50;;;18.10;99.90;;;;;;5132646;27;20394;-67
2023/07/30 05:54:44;;;;;;;5.85;2.33;;;18.20;99.90;;;;;;5129470;27;20035;-66
2023/07/30 05:57:11;;;;;;;4.88;2.30;;;18.10;99.90;;;;;;5133896;27;20402;-66
2023/07/30 05:59:38;;;;;;;4.45;2.50;;;18.10;99.90;;;;;;5133319;27;20050;-67
2023/07/30 06:02:05;;;;;;;3.33;2.53;;;18.10;99.90;;;;;;5122321;27;20047;-67
2023/07/30 06:04:32;;;;;;;7.68;3.00;;;18.10;99.90;;;;;;5126094;27;20043;-66
2023/07/30 06:07:05;;;;;;;4.53;2.58;;;18.10;99.90;;;;;;5130184;27;20043;-67
2023/07/30 06:09:31;;;;;;;3.95;2.83;;;18.10;99.90;;;;;;5133344;27;20047;-66
2023/07/30 06:11:58;;;;;;;4.60;2.70;;;18.10;99.90;;;;;;5132716;27;20035;-67
2023/07/30 06:14:26;;;;;;;4.75;2.70;;;18.10;99.90;;;;;;5137238;27;20047;-66
2023/07/30 06:16:53;;;;;;;3.55;2.63;;;18.20;99.90;;;;;;5136488;27;20027;-66
2023/07/30 06:19:20;;;;;;;;;;;18.10;99.90;;;;;;5132887;27;20050;-66
2023/07/30 06:21:47;;;;;;;3.97;2.58;;;17.90;99.90;;;;;;5104463;28;20389;-67
2023/07/30 06:24:14;;;;;;;6.88;2.90;;;17.90;99.90;;;;;;5132233;27;20497;-67
2023/07/30 06:26:41;;;;;;;3.35;2.90;;;17.90;99.90;;;;;;5132791;27;20391;-66
2023/07/30 06:29:08;;;;;;;3.47;2.53;;;17.90;99.90;;;;;;5130592;27;20039;-66
2023/07/30 06:31:34;;;;;;;6.15;3.03;;;17.90;99.90;;;;;;5131890;27;20077;-67
2023/07/30 06:34:02;;;;;;;5.00;2.50;;;17.90;99.90;;;;;;5132066;27;20039;-67
2023/07/30 06:36:28;;;;;;;7.40;3.33;;;18.20;99.90;;;;;;5132980;27;20476;-67
2023/07/30 06:38:55;;;;;;;4.90;2.78;;;18.30;99.90;;;;;;5132427;27;20051;-67
2023/07/30 06:41:22;;;;;;;2.65;2.33;;;18.40;99.90;;;;;;5131226;27;20479;-67
2023/07/30 06:43:49;;;;;;;6.60;2.28;;;18.60;99.90;;;;;;5119192;27;20039;-66
2023/07/30 06:46:16;;;;;;;3.63;2.25;;;18.70;99.90;;;;;;5132127;27;20114;-67
2023/07/30 06:48:42;;;;;;;2.70;2.10;;;18.70;99.90;;;;;;5124410;27;20130;-66
2023/07/30 06:51:12;;;;;;;4.75;2.22;;;18.90;99.90;;;;;;5123080;27;20047;-67
2023/07/30 06:53:39;;;;;;;3.47;2.22;;;18.70;99.90;;;;;;5125325;27;20031;-67
2023/07/30 06:56:06;;;;;;;6.85;2.17;;;18.90;99.90;;;;;;5131690;27;20038;-66
2023/07/30 06:58:33;;;;;;;3.65;2.45;;;18.90;99.90;;;;;;5133159;27;20057;-66
2023/07/30 07:00:59;;;;;;;2.97;2.08;;;19.10;99.90;;;;;;5131340;27;20057;-67
2023/07/30 07:03:26;;;;;;;3.78;2.20;;;19.10;99.90;;;;;;5127040;27;20042;-66
2023/07/30 07:05:55;;;;;;;3.83;2.42;;;19.20;99.90;;;;;;5132055;27;20084;-67
2023/07/30 07:08:22;;;;;;;2.95;2.40;;;19.30;99.90;;;;;;5124486;27;20038;-67
2023/07/30 07:10:49;;;;;;;;;;;19.40;99.90;;;;;;5129180;27;20403;-67
2023/07/30 07:13:16;;;;;;;3.05;2.00;;;19.50;99.90;;;;;;5131899;27;19926;-67
2023/07/30 07:15:44;;;;;;;3.75;2.45;;;19.70;99.90;;;;;;5131585;27;20039;-67
2023/07/30 07:18:11;;;;;;;4.35;2.65;;;19.60;99.90;;;;;;5131925;27;20613;-67
2023/07/30 07:20:38;;;;;;;4.28;2.80;;;19.60;99.90;;;;;;5138588;27;20406;-67
2023/07/30 07:23:05;;;;;;;5.35;2.75;;;19.80;99.90;;;;;;5140382;27;20384;-67
2023/07/30 07:25:31;;;;;;;5.25;2.67;;;20.00;99.90;;;;;;5142661;27;20034;-67
2023/07/30 07:27:58;;;;;;;3.83;2.05;;;20.20;99.90;;;;;;5141183;27;20063;-67
2023/07/30 07:30:25;;;;;;;4.80;2.92;;;20.50;99.90;;;;;;5137863;27;20062;-67
2023/07/30 07:32:53;;;;;;;5.20;2.35;;;20.40;99.90;;;;;;5134786;27;20039;-66
2023/07/30 07:35:20;;;;;;;7.25;2.22;;;20.30;99.90;;;;;;5133414;27;20041;-67
2023/07/30 07:37:47;;;;;;;2.78;2.13;;;20.50;99.90;;;;;;5145006;27;20058;-67
2023/07/30 07:40:14;;;;;;;3.13;1.83;;;20.50;99.90;;;;;;5135201;27;20035;-67
2023/07/30 07:42:40;;;;;;;4.70;1.85;;;20.60;99.90;;;;;;5132773;27;20027;-67
2023/07/30 07:45:08;;;;;;;1.88;1.75;;;20.70;99.90;;;;;;5124449;27;20487;-67
2023/07/30 07:47:35;;;;;;;4.80;2.05;;;20.80;99.90;;;;;;5141827;27;20089;-67
2023/07/30 07:50:02;;;;;;;2.90;1.80;;;21.00;99.90;;;;;;5135387;27;20373;-67
2023/07/30 07:52:28;;;;;;;2.22;1.73;;;21.20;99.90;;;;;;5138950;27;20436;-67
2023/07/30 07:54:55;;;;;;;2.47;1.83;;;21.00;99.90;;;;;;5138563;27;20498;-67
2023/07/30 07:57:22;;;;;;;1.77;1.60;;;20.90;99.90;;;;;;5141005;27;20046;-67
2023/07/30 07:59:49;;;;;;;2.80;1.90;;;20.70;99.90;;;;;;5138578;27;20043;-67
2023/07/30 08:02:16;;;;;;;3.95;1.98;;;20.60;99.90;;;;;;5135259;27;20031;-67
2023/07/30 08:04:42;;;;;;;2.60;1.73;;;20.60;99.90;;;;;;5138836;27;20042;-67
2023/07/30 08:07:09;;;;;;;3.28;1.92;;;20.80;99.90;;;;;;5139567;27;20051;-67
2023/07/30 08:09:36;;;;;;;4.82;2.55;;;20.90;99.90;;;;;;5136743;27;20050;-67
2023/07/30 08:12:03;;;;;;;5.05;2.70;;;21.10;99.90;;;;;;5141196;27;20492;-67
2023/07/30 08:14:31;;;;;;;;;;;21.20;99.90;;;;;;5141555;27;20043;-67
2023/07/30 08:16:57;;;;;;;4.17;2.13;;;21.20;99.90;;;;;;5134523;27;19919;-67
2023/07/30 08:19:26;;;;;;;2.25;2.00;;;21.30;99.90;;;;;;5119437;27;20032;-67
2023/07/30 08:21:53;;;;;;;6.00;2.45;;;21.10;99.90;;;;;;5132642;27;20054;-67
2023/07/30 08:24:19;;;;;;;5.05;2.20;;;21.00;99.90;;;;;;5127427;27;20131;-67
2023/07/30 08:26:46;;;;;;;4.35;2.05;;;20.80;99.90;;;;;;5125329;28;20407;-67
2023/07/30 08:29:13;;;;;;;4.22;1.98;;;20.70;99.90;;;;;;5130143;28;20040;-67
2023/07/30 08:31:41;;;;;;;3.53;2.40;;;20.50;99.90;;;;;;5124755;27;20039;-67
2023/07/30 08:34:08;;;;;;;6.28;2.22;;;20.50;99.90;;;;;;5131679;27;20502;-67
2023/07/30 08:36:35;;;;;;;4.80;2.05;;;20.50;99.90;;;;;;5134937;27;20066;-67
2023/07/30 08:39:03;;;;;;;4.90;2.10;;;20.50;99.90;;;;;;5126309;27;20059;-67
2023/07/30 08:41:31;;;;;;;2.40;1.67;;;20.70;99.90;;;;;;5135023;27;20050;-67
2023/07/30 08:43:58;;;;;;;4.68;1.90;;;20.90;99.90;;;;;;5135140;27;20043;-67
2023/07/30 08:46:25;;;;;;;4.32;2.38;;;21.20;99.90;;;;;;5125047;27;20062;-66
2023/07/30 08:48:52;;;;;;;5.88;2.50;;;21.20;99.90;;;;;;5134657;27;20232;-66
2023/07/30 08:51:19;;;;;;;3.47;2.60;;;21.20;99.90;;;;;;5134156;27;20035;-65
2023/07/30 08:53:47;;;;;;;4.38;2.22;;;21.30;99.90;;;;;;5126393;27;20666;-65
2023/07/30 08:56:14;;;;;;;11.05;2.30;;;21.60;99.90;;;;;;5134397;27;20043;-66
2023/07/30 08:58:43;;;;;;;2.20;2.00;;;22.30;99.90;;;;;;5128263;27;20525;-66
2023/07/30 09:01:12;;;;;;;2.83;2.40;;;22.80;99.90;;;;;;5131083;27;20381;-66
2023/07/30 09:03:40;;;;;;;3.10;1.90;;;23.20;99.90;;;;;;5129947;27;20035;-66
2023/07/30 09:06:07;;;;;;;4.15;2.08;;;23.30;99.90;;;;;;5115423;27;20463;-66
2023/07/30 09:08:34;;;;;;;5.30;2.15;;;22.90;99.90;;;;;;5134578;27;20035;-66
2023/07/30 09:11:08;;;;;;;3.00;2.08;;;22.50;99.90;;;;;;5131939;27;20059;-66
2023/07/30 09:13:40;;;;;;;2.90;2.03;;;22.00;99.90;;;;;;5134334;27;20035;-66
2023/07/30 09:16:11;;;;;;;2.55;2.00;;;21.70;99.90;;;;;;5125873;27;20411;-66
2023/07/30 09:18:49;;;;;;;3.13;2.15;;;21.40;99.90;;;;;;5112975;27;20076;-66
2023/07/30 09:21:17;;;;;;;2.30;1.90;;;21.20;99.90;;;;;;5130746;27;20046;-66
2023/07/30 09:23:47;;;;;;;2.50;1.75;;;21.20;99.90;;;;;;5131419;27;20040;-66
2023/07/30 09:26:14;;;;;;;3.45;2.08;;;21.10;99.90;;;;;;5132751;27;20126;-66
2023/07/30 09:28:41;;;;;;;3.65;2.00;;;21.20;99.90;;;;;;5130987;27;20368;-65
2023/07/30 09:31:09;;;;;;;2.47;2.28;;;20.90;99.90;;;;;;5134125;27;20042;-65
2023/07/30 09:33:48;;;;;;;3.95;2.25;;;20.80;99.90;;;;;;5137302;27;20042;-65
2023/07/30 09:36:15;;;;;;;;;;;20.80;99.90;;;;;;5140900;27;20035;-66
2023/07/30 09:38:43;;;;;;;3.95;2.40;;;20.70;99.90;;;;;;5143271;27;20642;-66
2023/07/30 09:41:12;;;;;;;2.80;2.20;;;20.60;99.90;;;;;;5129816;27;20051;-66
2023/07/30 09:43:39;;;;;;;4.05;2.40;;;20.60;99.90;;;;;;5125392;27;20031;-66
2023/07/30 09:46:06;;;;;;;3.78;2.22;;;20.60;99.90;;;;;;5133475;27;20051;-66
2023/07/30 09:48:34;;;;;;;4.53;2.55;;;20.60;99.90;;;;;;5131864;27;20115;-66
2023/07/30 09:51:03;;;;;;;5.63;2.13;;;20.50;99.90;;;;;;5133184;27;20043;-66
2023/07/30 09:53:34;;;;;;;3.65;2.20;;;20.40;99.90;;;;;;5133003;27;20126;-66
2023/07/30 09:56:07;;;;;;;3.85;2.13;;;20.50;99.90;;;;;;5133777;27;20043;-66
2023/07/30 09:58:37;;;;;;;1.80;1.65;;;20.70;99.90;;;;;;5132915;27;20088;-66
2023/07/30 10:01:05;;;;;;;3.83;1.63;;;21.00;99.90;;;;;;5133430;27;20047;-66
2023/07/30 10:03:35;;;;;;;2.22;1.58;;;21.70;99.90;;;;;;5126893;27;20092;-66
2023/07/30 10:06:03;;;;;;;2.53;1.77;;;22.30;99.90;;;;;;5126626;27;20114;-66
2023/07/30 10:08:37;;;;;;;1.40;1.30;;;22.90;99.90;;;;;;5124635;27;20124;-66
2023/07/30 10:11:07;;;;;;;2.00;1.40;;;23.60;99.90;;;;;;5104586;27;20035;-66
2023/07/30 10:13:36;;;;;;;1.50;1.35;;;23.70;99.90;;;;;;5126023;27;20057;-66
2023/07/30 10:16:02;;;;;;;4.25;1.20;;;23.80;99.90;;;;;;5133090;27;20040;-67
2023/07/30 10:18:43;;;;;;;2.58;1.60;;;23.80;99.90;;;;;;5124212;27;20048;-67
2023/07/30 10:21:21;;;;;;;3.55;1.48;;;23.80;99.90;;;;;;5133063;27;20070;-66
2023/07/30 10:24:01;;;;;;;2.47;1.85;;;23.50;99.90;;;;;;5132934;27;20049;-66
2023/07/30 10:26:35;;;;;;;2.03;1.60;;;23.50;99.90;;;;;;5131865;27;20035;-67
2023/07/30 10:29:16;;;;;;;4.18;1.60;;;23.30;99.90;;;;;;5127920;27;20053;-66
2023/07/30 10:31:54;;;;;;;2.08;1.38;;;23.30;99.90;;;;;;5128658;27;20035;-67
2023/07/30 10:34:21;;;;;;;2.55;1.95;;;23.20;99.90;;;;;;5129893;27;20043;-67
2023/07/30 10:36:52;;;;;;;4.28;1.80;;;23.00;99.90;;;;;;5136255;27;20117;-67
2023/07/30 10:39:27;;;;;;;2.25;1.90;;;22.90;99.90;;;;;;5138726;27;20031;-65
2023/07/30 10:41:58;;;;;;;3.05;2.47;;;23.00;99.90;;;;;;5141112;27;20433;-65
2023/07/30 10:44:33;;;;;;;2.45;1.50;;;23.20;99.90;;;;;;5136204;27;20043;-66
2023/07/30 10:47:02;;;;;;;2.65;2.10;;;23.60;99.90;;;;;;5130394;27;20046;-65
2023/07/30 10:49:29;;;;;;;4.07;1.90;;;24.10;99.90;;;;;;5134415;27;20425;-65
2023/07/30 10:51:57;;;;;;;2.58;1.58;;;24.30;99.90;;;;;;5130721;27;20044;-66
2023/07/30 10:54:24;;;;;;;2.05;1.85;;;24.40;99.90;;;;;;5137194;27;20109;-66
2023/07/30 10:56:51;;;;;;;1.73;1.33;;;24.50;99.90;;;;;;5136137;27;20077;-66
2023/07/30 10:59:19;;;;;;;1.92;1.33;;;24.40;99.90;;;;;;5125555;27;20039;-66
2023/07/30 11:01:46;;;;;;;1.77;1.40;;;24.40;99.90;;;;;;5102590;28;20044;-66
2023/07/30 11:04:20;;;;;;;4.78;1.75;;;24.40;99.90;;;;;;5134598;27;20050;-66
2023/07/30 11:06:49;;;;;;;2.55;1.42;;;24.50;99.90;;;;;;5123707;27;20043;-66
2023/07/30 11:09:27;;;;;;;2.35;1.55;;;24.60;99.90;;;;;;5133662;27;20521;-66
2023/07/30 11:11:55;;;;;;;1.80;1.33;;;24.80;99.90;;;;;;5139563;27;20034;-66
2023/07/30 11:14:27;;;;;;;1.67;1.10;;;24.90;99.90;;;;;;5137370;27;20127;-66
2023/07/30 11:16:59;;;;;;;1.73;1.23;;;25.00;99.90;;;;;;5139746;27;20082;-66
2023/07/30 11:19:26;;;;;;;1.75;1.20;;;25.20;99.90;;;;;;5131733;27;20039;-66
2023/07/30 11:21:56;;;;;;;1.92;1.42;;;25.10;99.90;;;;;;5125740;27;20046;-66
2023/07/30 11:24:34;;;;;;;2.33;1.48;;;25.20;99.90;;;;;;5128054;27;20035;-66
2023/07/30 11:27:01;;;;;;;2.40;1.50;;;25.10;99.90;;;;;;5132485;27;20043;-66
2023/07/30 11:29:28;;;;;;;4.72;1.50;;;24.60;99.90;;;;;;5133035;27;20066;-66
2023/07/30 11:31:59;;;;;;;3.10;1.60;;;24.20;99.90;;;;;;5133719;27;20051;-66
2023/07/30 11:34:27;;;;;;;1.67;1.30;;;23.70;99.90;;;;;;5134695;27;20450;-66
2023/07/30 11:36:55;;;;;;;2.05;1.40;;;23.20;99.90;;;;;;5130827;27;20072;-66
2023/07/30 11:39:24;;;;;;;1.50;1.35;;;23.00;99.90;;;;;;5133386;27;20046;-66
2023/07/30 11:41:51;;;;;;;3.33;1.60;;;22.80;99.90;;;;;;5134616;27;20043;-66
2023/07/30 11:44:40;;;;;;;1.67;1.58;;;22.80;99.90;;;;;;5133174;27;20495;-66
2023/07/30 11:47:08;;;;;;;1.48;1.38;;;23.00;99.90;;;;;;5141565;27;20380;-66
2023/07/30 11:49:35;;;;;;;1.73;1.50;;;23.10;99.90;;;;;;5137182;27;20047;-67
2023/07/30 11:52:09;;;;;;;1.67;1.58;;;23.20;99.90;;;;;;5135898;27;20035;-66
2023/07/30 11:54:37;;;;;;;1.80;1.50;;;23.30;99.90;;;;;;5135725;27;20039;-67
2023/07/30 11:57:04;;;;;;;1.90;1.30;;;23.40;99.90;;;;;;5141387;27;20033;-66
2023/07/30 11:59:31;;;;;;;1.95;1.50;;;23.40;99.90;;;;;;5139480;27;20058;-66
2023/07/30 12:01:58;;;;;;;2.20;1.65;;;23.40;99.90;;;;;;5124093;27;20478;-67
2023/07/30 12:04:30;;;;;;;1.83;1.60;;;23.40;99.90;;;;;;5137908;27;20062;-66
2023/07/30 12:06:57;;;;;;;1.63;1.30;;;22.80;99.90;;;;;;5147339;27;20039;-66
2023/07/30 12:09:27;;;;;;;1.83;1.55;;;23.20;99.90;;;;;;5142501;27;20066;-66
2023/07/30 12:12:01;;;;;;;1.63;1.52;;;23.30;99.90;;;;;;5141811;27;20039;-66
2023/07/30 12:14:42;;;;;;;2.22;1.48;;;23.50;99.90;;;;;;5134807;27;20031;-66
2023/07/30 12:17:09;;;;;;;2.15;1.30;;;23.80;99.90;;;;;;5129991;27;20510;-66
2023/07/30 12:19:36;;;;;;;1.55;1.30;;;24.10;99.90;;;;;;5135088;27;20395;-66
2023/07/30 12:22:03;;;;;;;1.95;1.30;;;24.40;99.90;;;;;;5129913;27;20042;-66
2023/07/30 12:24:30;;;;;;;1.50;1.40;;;24.90;99.90;;;;;;5132171;27;20069;-66
2023/07/30 12:26:57;;;;;;;1.10;1.02;;;25.60;99.90;;;;;;5134950;27;20049;-66
2023/07/30 12:29:24;;;;;;;;;;;26.10;99.90;;;;;;5135326;27;20067;-67
2023/07/30 12:31:53;;;;;;;1.70;1.25;;;26.40;99.90;;;;;;5134980;27;20333;-66
2023/07/30 12:34:22;;;;;;;1.20;1.00;;;26.20;99.90;;;;;;5128288;27;20111;-66
2023/07/30 12:36:49;;;;;;;1.20;1.10;;;25.90;99.90;;;;;;5134859;27;20035;-66
2023/07/30 12:39:16;;;;;;;1.10;1.00;;;26.20;99.90;;;;;;5135227;27;20062;-66
2023/07/30 12:41:42;;;;;;;1.70;1.30;;;26.70;99.90;;;;;;5131247;27;20039;-66
2023/07/30 12:44:09;;;;;;;1.33;1.20;;;26.80;99.90;;;;;;5132382;27;20039;-66
2023/07/30 12:46:36;;;;;;;;;;;26.80;99.90;;;;;;5130582;27;20065;-66
2023/07/30 12:49:04;;;;;;;5.45;1.38;;;26.80;99.90;;;;;;5135218;27;19920;-66
2023/07/30 12:51:31;;;;;;;1.35;0.93;;;26.80;99.90;;;;;;5127646;27;20126;-66
2023/07/30 12:53:58;;;;;;;2.55;1.27;;;26.80;99.90;;;;;;5134645;27;20050;-66